createdAt,value
2022-09-03T00:00:03.890Z,19.20
2022-09-03T00:03:09.100Z,19.20
2022-09-03T00:06:09.807Z,19.30
2022-09-03T00:08:46.800Z,19.40
2022-09-03T00:11:27.735Z,19.40
2022-09-03T00:14:04.694Z,19.40
2022-09-03T00:16:52.416Z,19.40
2022-09-03T00:19:30.247Z,19.40
2022-09-03T00:22:07.981Z,19.40
2022-09-03T00:24:39.814Z,19.40
2022-09-03T00:27:17.893Z,19.40
2022-09-03T00:30:10.307Z,19.40
2022-09-03T00:32:53.329Z,19.40
2022-09-03T00:35:47.803Z,19.30
2022-09-03T00:38:16.000Z,19.20
2022-09-03T00:41:09.264Z,19.20
2022-09-03T00:44:11.151Z,19.10
2022-09-03T00:47:11.010Z,19.10
2022-09-03T00:50:00.328Z,19.10
2022-09-03T00:53:08.406Z,19.00
2022-09-03T00:55:58.788Z,19.10
2022-09-03T00:58:57.187Z,19.00
2022-09-03T01:01:49.026Z,19.10
2022-09-03T01:04:48.604Z,19.10
2022-09-03T01:07:42.003Z,19.00
2022-09-03T01:10:27.860Z,19.00
2022-09-03T01:13:09.052Z,18.90
2022-09-03T01:15:54.483Z,18.90
2022-09-03T01:19:11.923Z,18.90
2022-09-03T01:21:58.382Z,18.90
2022-09-03T01:24:52.924Z,18.90
2022-09-03T01:28:17.420Z,18.80
2022-09-03T01:30:51.383Z,18.90
2022-09-03T01:33:35.637Z,18.80
2022-09-03T01:36:38.390Z,18.80
2022-09-03T01:39:13.893Z,18.70
2022-09-03T01:42:20.841Z,18.70
2022-09-03T01:45:29.461Z,18.70
2022-09-03T01:48:12.873Z,18.70
2022-09-03T01:50:52.282Z,18.50
2022-09-03T01:53:34.966Z,18.30
2022-09-03T01:56:27.463Z,18.20
2022-09-03T01:59:08.005Z,18.20
2022-09-03T02:01:54.086Z,18.20
2022-09-03T02:04:24.938Z,18.30
2022-09-03T02:06:53.995Z,18.40
2022-09-03T02:09:21.596Z,18.40
2022-09-03T02:12:00.963Z,18.50
2022-09-03T02:14:30.253Z,18.50
2022-09-03T02:17:00.782Z,18.50
2022-09-03T02:19:31.022Z,18.50
2022-09-03T02:21:58.875Z,18.60
2022-09-03T02:24:26.726Z,18.60
2022-09-03T02:26:55.144Z,18.60
2022-09-03T02:29:23.979Z,18.60
2022-09-03T02:31:52.155Z,18.60
2022-09-03T02:34:19.795Z,18.70
2022-09-03T02:36:48.147Z,18.70
2022-09-03T02:39:17.309Z,18.70
2022-09-03T02:41:45.066Z,18.70
2022-09-03T02:44:58.733Z,18.70
2022-09-03T02:47:32.062Z,18.70
2022-09-03T02:49:59.726Z,18.70
2022-09-03T02:52:27.340Z,18.70
2022-09-03T02:54:54.973Z,18.70
2022-09-03T02:57:27.329Z,18.60
2022-09-03T02:59:55.690Z,18.60
2022-09-03T03:02:23.477Z,18.70
2022-09-03T03:04:51.189Z,18.70
2022-09-03T03:07:18.814Z,18.70
2022-09-03T03:09:46.501Z,18.60
2022-09-03T03:12:14.193Z,18.60
2022-09-03T03:14:41.831Z,18.60
2022-09-03T03:17:09.871Z,18.50
2022-09-03T03:19:37.657Z,18.40
2022-09-03T03:22:05.281Z,18.40
2022-09-03T03:24:33.268Z,18.40
2022-09-03T03:27:00.954Z,18.40
2022-09-03T03:29:28.840Z,18.50
2022-09-03T03:31:56.923Z,18.50
2022-09-03T03:34:24.574Z,18.60
2022-09-03T03:36:52.584Z,18.60
2022-09-03T03:39:21.190Z,18.60
2022-09-03T03:41:48.869Z,18.60
2022-09-03T03:44:17.633Z,18.60
2022-09-03T03:46:45.303Z,18.60
2022-09-03T03:49:12.908Z,18.50
2022-09-03T03:51:40.858Z,18.50
2022-09-03T03:54:08.449Z,18.50
2022-09-03T03:56:36.573Z,18.50
2022-09-03T03:59:04.868Z,18.50
2022-09-03T04:01:32.830Z,18.50
2022-09-03T04:04:00.681Z,18.40
2022-09-03T04:06:28.964Z,18.50
2022-09-03T04:08:56.630Z,18.50
2022-09-03T04:11:26.014Z,18.50
2022-09-03T04:13:54.375Z,18.60
2022-09-03T04:16:27.778Z,18.60
2022-09-03T04:18:57.061Z,18.60
2022-09-03T04:21:28.580Z,18.60
2022-09-03T04:23:58.209Z,18.60
2022-09-03T04:26:31.633Z,18.60
2022-09-03T04:29:01.406Z,18.60
2022-09-03T04:31:29.644Z,18.60
2022-09-03T04:33:57.816Z,18.60
2022-09-03T04:36:28.504Z,18.60
2022-09-03T04:38:59.951Z,18.60
2022-09-03T04:41:31.470Z,18.60
2022-09-03T04:44:00.398Z,18.60
2022-09-03T04:46:33.488Z,18.60
2022-09-03T04:49:02.407Z,18.60
2022-09-03T04:51:31.222Z,18.50
2022-09-03T04:54:02.016Z,18.40
2022-09-03T04:56:35.542Z,18.40
2022-09-03T04:59:08.258Z,18.40
2022-09-03T05:01:38.639Z,18.40
2022-09-03T05:04:08.688Z,18.40
2022-09-03T05:06:37.348Z,18.30
2022-09-03T05:09:06.136Z,18.20
2022-09-03T05:11:33.839Z,18.20
2022-09-03T05:14:01.531Z,18.20
2022-09-03T05:16:31.129Z,18.10
2022-09-03T05:19:01.116Z,18.10
2022-09-03T05:21:29.955Z,18.00
2022-09-03T05:23:59.254Z,18.00
2022-09-03T05:26:30.292Z,18.10
2022-09-03T05:29:02.616Z,18.10
2022-09-03T05:31:32.146Z,18.10
2022-09-03T05:34:03.749Z,18.00
2022-09-03T05:36:35.278Z,18.00
2022-09-03T05:39:05.020Z,18.00
2022-09-03T05:41:34.266Z,18.00
2022-09-03T05:44:02.361Z,18.00
2022-09-03T05:46:33.409Z,18.10
2022-09-03T05:49:03.825Z,18.10
2022-09-03T05:51:33.288Z,18.10
2022-09-03T05:54:01.841Z,18.20
2022-09-03T05:56:32.149Z,18.20
2022-09-03T05:59:02.945Z,18.20
2022-09-03T06:01:34.184Z,18.10
2022-09-03T06:04:14.758Z,18.20
2022-09-03T06:06:44.905Z,18.20
2022-09-03T06:09:23.110Z,18.20
2022-09-03T06:11:52.458Z,18.20
2022-09-03T06:14:20.822Z,18.20
2022-09-03T06:16:50.131Z,18.10
2022-09-03T06:19:17.959Z,18.10
2022-09-03T06:21:46.903Z,18.10
2022-09-03T06:24:28.316Z,18.10
2022-09-03T06:26:57.382Z,18.20
2022-09-03T06:29:25.437Z,18.20
2022-09-03T06:31:53.140Z,18.20
2022-09-03T06:34:22.686Z,18.30
2022-09-03T06:36:52.059Z,18.30
2022-09-03T06:39:22.580Z,18.40
2022-09-03T06:41:51.843Z,18.40
2022-09-03T06:44:26.539Z,18.40
2022-09-03T06:46:54.193Z,18.40
2022-09-03T06:49:22.162Z,18.50
2022-09-03T06:51:49.859Z,18.60
2022-09-03T06:54:17.472Z,18.60
2022-09-03T06:56:45.131Z,18.70
2022-09-03T06:59:15.352Z,18.80
2022-09-03T07:01:46.325Z,18.80
2022-09-03T07:04:20.386Z,18.90
2022-09-03T07:06:48.794Z,18.90
2022-09-03T07:09:18.925Z,19.00
2022-09-03T07:11:48.114Z,19.00
2022-09-03T07:14:19.016Z,19.00
2022-09-03T07:16:49.376Z,19.10
2022-09-03T07:19:17.962Z,19.10
2022-09-03T07:21:50.203Z,19.20
2022-09-03T07:24:22.003Z,19.20
2022-09-03T07:26:50.638Z,19.30
2022-09-03T07:29:22.806Z,19.30
2022-09-03T07:31:52.596Z,19.40
2022-09-03T07:34:24.461Z,19.40
2022-09-03T07:36:53.923Z,19.40
2022-09-03T07:39:21.735Z,19.50
2022-09-03T07:41:50.312Z,19.60
2022-09-03T07:44:22.815Z,19.60
2022-09-03T07:46:51.419Z,19.70
2022-09-03T07:49:21.693Z,19.70
2022-09-03T07:51:54.595Z,19.70
2022-09-03T07:54:24.044Z,19.80
2022-09-03T07:56:52.084Z,19.90
2022-09-03T07:59:21.412Z,19.90
2022-09-03T08:01:49.226Z,20.00
2022-09-03T08:04:16.875Z,20.00
2022-09-03T08:06:44.619Z,20.10
2022-09-03T08:09:13.927Z,20.10
2022-09-03T08:11:43.765Z,20.10
2022-09-03T08:14:13.551Z,20.10
2022-09-03T08:16:49.410Z,20.20
2022-09-03T08:19:18.471Z,20.30
2022-09-03T08:21:46.450Z,20.30
2022-09-03T08:24:17.085Z,20.40
2022-09-03T08:26:50.656Z,20.40
2022-09-03T08:29:20.866Z,20.50
2022-09-03T08:31:48.703Z,20.50
2022-09-03T08:34:17.909Z,20.60
2022-09-03T08:36:47.582Z,20.70
2022-09-03T08:39:16.018Z,20.80
2022-09-03T08:42:15.873Z,20.80
2022-09-03T08:44:49.569Z,21.00
2022-09-03T08:47:28.846Z,21.10
2022-09-03T08:50:31.972Z,21.10
2022-09-03T08:53:15.737Z,21.20
2022-09-03T08:55:46.860Z,21.20
2022-09-03T08:58:20.883Z,21.30
2022-09-03T09:01:36.303Z,21.30
2022-09-03T09:04:37.809Z,21.40
2022-09-03T09:07:30.760Z,21.40
2022-09-03T09:10:23.240Z,21.40
2022-09-03T09:13:30.949Z,21.50
2022-09-03T09:16:39.038Z,21.50
2022-09-03T09:19:45.638Z,21.50
2022-09-03T09:22:32.811Z,21.60
2022-09-03T09:25:09.423Z,21.60
2022-09-03T09:27:43.400Z,21.60
2022-09-03T09:30:14.162Z,21.70
2022-09-03T09:32:41.850Z,21.70
2022-09-03T09:35:18.691Z,21.80
2022-09-03T09:37:57.638Z,21.80
2022-09-03T09:40:36.717Z,21.90
2022-09-03T09:43:11.045Z,22.00
2022-09-03T09:45:42.811Z,22.10
2022-09-03T09:48:23.038Z,22.20
2022-09-03T09:50:50.778Z,22.30
2022-09-03T09:53:21.627Z,22.40
2022-09-03T09:56:02.991Z,22.60
2022-09-03T09:58:34.156Z,22.60
2022-09-03T10:01:13.603Z,22.70
2022-09-03T10:03:57.209Z,22.80
2022-09-03T10:06:47.644Z,22.90
2022-09-03T10:09:18.838Z,23.00
2022-09-03T10:11:56.599Z,23.10
2022-09-03T10:14:35.129Z,23.20
2022-09-03T10:17:36.929Z,23.30
2022-09-03T10:20:32.417Z,23.30
2022-09-03T10:23:18.837Z,23.50
2022-09-03T10:26:07.716Z,23.60
2022-09-03T10:28:41.463Z,23.80
2022-09-03T10:31:39.882Z,24.00
2022-09-03T10:34:21.059Z,24.00
2022-09-03T10:37:33.428Z,24.10
2022-09-03T10:40:20.903Z,24.20
2022-09-03T10:43:19.201Z,24.20
2022-09-03T10:46:06.264Z,24.30
2022-09-03T10:49:19.627Z,24.30
2022-09-03T10:52:15.685Z,24.20
2022-09-03T10:55:00.574Z,24.20
2022-09-03T10:58:38.142Z,24.20
2022-09-03T11:01:44.289Z,24.20
2022-09-03T11:04:17.929Z,24.20
2022-09-03T11:07:30.473Z,24.20
2022-09-03T11:10:35.426Z,24.20
2022-09-03T11:13:17.727Z,24.20
2022-09-03T11:15:55.322Z,24.20
2022-09-03T11:18:36.293Z,24.30
2022-09-03T11:21:12.361Z,24.30
2022-09-03T11:23:55.237Z,24.40
2022-09-03T11:26:26.374Z,24.50
2022-09-03T11:29:26.226Z,24.60
2022-09-03T11:32:08.721Z,24.80
2022-09-03T11:34:52.492Z,24.90
2022-09-03T11:37:26.892Z,25.00
2022-09-03T11:40:13.968Z,25.10
2022-09-03T11:42:43.939Z,25.20
2022-09-03T11:45:34.739Z,25.30
2022-09-03T11:48:02.929Z,25.30
2022-09-03T11:50:34.054Z,25.40
2022-09-03T11:53:11.809Z,25.50
2022-09-03T11:56:07.737Z,25.60
2022-09-03T11:58:42.921Z,25.80
2022-09-03T12:01:18.820Z,26.00
2022-09-03T12:04:03.361Z,26.20
2022-09-03T12:07:08.791Z,26.30
2022-09-03T12:09:39.424Z,26.30
2022-09-03T12:12:32.170Z,26.10
2022-09-03T12:15:51.446Z,25.90
2022-09-03T12:18:31.561Z,25.80
2022-09-03T12:21:00.263Z,25.70
2022-09-03T12:23:31.650Z,25.90
2022-09-03T12:26:07.626Z,26.00
2022-09-03T12:28:38.708Z,26.00
2022-09-03T12:31:22.721Z,26.00
2022-09-03T12:34:15.023Z,25.80
2022-09-03T12:36:52.834Z,25.80
2022-09-03T12:42:22.655Z,25.90
2022-09-03T12:44:50.311Z,25.80
2022-09-03T12:47:37.909Z,25.70
2022-09-03T12:50:13.487Z,25.60
2022-09-03T12:52:56.419Z,25.50
2022-09-03T12:55:38.233Z,25.60
2022-09-03T12:58:18.538Z,25.80
2022-09-03T13:01:13.173Z,26.00
2022-09-03T13:04:03.153Z,26.00
2022-09-03T13:06:56.752Z,26.20
2022-09-03T13:09:26.951Z,26.40
2022-09-03T13:11:59.122Z,26.40
2022-09-03T13:14:27.720Z,26.20
2022-09-03T13:17:54.134Z,26.00
2022-09-03T13:20:34.867Z,25.90
2022-09-03T13:23:52.445Z,25.90
2022-09-03T13:26:41.252Z,25.90
2022-09-03T13:29:40.407Z,25.80
2022-09-03T13:32:40.680Z,25.80
2022-09-03T13:35:20.719Z,25.90
2022-09-03T13:38:21.239Z,26.00
2022-09-03T13:41:26.903Z,25.90
2022-09-03T13:44:09.837Z,25.80
2022-09-03T13:46:53.887Z,25.80
2022-09-03T13:50:10.189Z,25.70
2022-09-03T13:53:05.236Z,25.80
2022-09-03T13:55:50.205Z,25.90
2022-09-03T13:59:08.990Z,26.10
2022-09-03T14:02:16.988Z,26.30
2022-09-03T14:05:02.067Z,26.60
2022-09-03T14:07:46.274Z,26.80
2022-09-03T14:11:23.367Z,26.90
2022-09-03T14:14:14.107Z,27.10
2022-09-03T14:16:55.232Z,27.30
2022-09-03T14:20:12.717Z,27.50
2022-09-03T14:22:53.702Z,27.30
2022-09-03T14:25:25.982Z,27.10
2022-09-03T14:27:56.063Z,26.90
2022-09-03T14:30:46.195Z,26.90
2022-09-03T14:33:55.081Z,27.00
2022-09-03T14:37:16.023Z,27.10
2022-09-03T14:40:13.481Z,27.00
2022-09-03T14:42:56.628Z,26.90
2022-09-03T14:45:36.222Z,26.70
2022-09-03T14:48:36.917Z,26.50
2022-09-03T14:51:29.217Z,26.40
2022-09-03T14:54:54.411Z,26.30
2022-09-03T14:57:37.071Z,26.30
2022-09-03T15:01:05.165Z,26.30
2022-09-03T15:04:21.539Z,26.50
2022-09-03T15:07:19.019Z,26.90
2022-09-03T15:10:36.821Z,27.30
2022-09-03T15:13:10.872Z,27.60
2022-09-03T15:15:41.531Z,27.60
2022-09-03T15:19:10.150Z,27.40
2022-09-03T15:21:46.567Z,27.10
2022-09-03T15:24:51.958Z,26.90
2022-09-03T15:27:48.883Z,26.70
2022-09-03T15:30:21.910Z,26.50
2022-09-03T15:32:55.664Z,26.30
2022-09-03T15:35:29.082Z,26.20
2022-09-03T15:38:02.870Z,26.00
2022-09-03T15:40:50.047Z,25.90
2022-09-03T15:43:31.800Z,25.90
2022-09-03T15:46:45.143Z,25.90
2022-09-03T15:49:51.284Z,25.90
2022-09-03T15:52:34.360Z,25.80
2022-09-03T15:55:16.627Z,25.80
2022-09-03T15:58:10.486Z,25.70
2022-09-03T16:00:53.750Z,25.70
2022-09-03T16:03:35.281Z,25.60
2022-09-03T16:06:07.729Z,25.60
2022-09-03T16:09:09.195Z,25.60
2022-09-03T16:11:47.944Z,25.50
2022-09-03T16:14:30.879Z,25.40
2022-09-03T16:17:16.149Z,25.30
2022-09-03T16:19:54.393Z,25.40
2022-09-03T16:22:31.395Z,25.40
2022-09-03T16:25:08.646Z,25.30
2022-09-03T16:27:51.400Z,25.30
2022-09-03T16:30:43.520Z,25.40
2022-09-03T16:33:42.483Z,25.40
2022-09-03T16:36:54.744Z,25.60
2022-09-03T16:39:55.679Z,25.60
2022-09-03T16:42:32.424Z,25.60
2022-09-03T16:45:34.874Z,25.60
2022-09-03T16:48:27.970Z,25.70
2022-09-03T16:51:21.221Z,25.70
2022-09-03T16:54:08.501Z,25.70
2022-09-03T16:57:02.179Z,25.70
2022-09-03T17:00:00.177Z,25.70
2022-09-03T17:03:13.745Z,25.80
2022-09-03T17:06:00.823Z,25.80
2022-09-03T17:08:54.333Z,25.80
2022-09-03T17:12:02.070Z,25.80
2022-09-03T17:14:32.663Z,25.80
2022-09-03T17:17:27.094Z,25.70
2022-09-03T17:20:34.158Z,25.60
2022-09-03T17:23:15.860Z,25.40
2022-09-03T17:26:00.009Z,25.30
2022-09-03T17:29:04.035Z,25.30
2022-09-03T17:31:52.550Z,25.30
2022-09-03T17:34:43.137Z,25.20
2022-09-03T17:37:46.216Z,25.10
2022-09-03T17:40:55.905Z,25.10
2022-09-03T17:43:38.423Z,25.00
2022-09-03T17:46:39.957Z,25.00
2022-09-03T17:49:14.544Z,25.00
2022-09-03T17:52:00.220Z,24.80
2022-09-03T17:54:44.760Z,24.80
2022-09-03T17:57:48.550Z,24.70
2022-09-03T18:00:46.224Z,24.60
2022-09-03T18:03:25.240Z,24.50
2022-09-03T18:06:46.605Z,24.40
2022-09-03T18:09:17.532Z,24.30
2022-09-03T18:12:03.521Z,24.20
2022-09-03T18:14:56.887Z,24.00
2022-09-03T18:17:59.603Z,23.80
2022-09-03T18:21:03.140Z,23.60
2022-09-03T18:24:56.468Z,23.50
2022-09-03T18:27:57.890Z,23.40
2022-09-03T18:30:46.791Z,23.40
2022-09-03T18:33:37.185Z,23.40
2022-09-03T18:36:24.643Z,23.40
2022-09-03T18:39:11.239Z,23.20
2022-09-03T18:42:06.599Z,23.10
2022-09-03T18:45:24.329Z,23.10
2022-09-03T18:48:27.522Z,22.80
2022-09-03T18:51:25.826Z,22.80
2022-09-03T18:55:06.284Z,22.80
2022-09-03T18:58:33.034Z,22.70
2022-09-03T19:01:56.545Z,22.50
2022-09-03T19:05:01.415Z,22.30
2022-09-03T19:08:41.167Z,22.30
2022-09-03T19:12:14.565Z,22.30
2022-09-03T19:15:18.556Z,22.40
2022-09-03T19:18:10.610Z,22.40
2022-09-03T19:21:00.280Z,22.40
2022-09-03T19:23:46.322Z,22.40
2022-09-03T19:26:59.062Z,22.40
2022-09-03T19:30:20.724Z,22.50
2022-09-03T19:33:46.558Z,22.50
2022-09-03T19:36:48.033Z,22.50
2022-09-03T19:40:05.445Z,22.40
2022-09-03T19:43:16.481Z,22.50
2022-09-03T19:46:56.105Z,22.50
2022-09-03T19:50:19.207Z,22.40
2022-09-03T19:53:16.047Z,22.40
2022-09-03T19:56:11.708Z,22.30
2022-09-03T19:59:14.675Z,22.10
2022-09-03T20:02:01.842Z,22.00
2022-09-03T20:05:03.748Z,22.00
2022-09-03T20:07:51.597Z,22.00
2022-09-03T20:10:23.730Z,22.00
2022-09-03T20:13:13.598Z,21.90
2022-09-03T20:16:22.024Z,21.90
2022-09-03T20:19:16.017Z,21.90
2022-09-03T20:22:19.468Z,21.70
2022-09-03T20:25:14.810Z,21.60
2022-09-03T20:28:24.555Z,21.60
2022-09-03T20:31:15.594Z,21.60
2022-09-03T20:34:21.703Z,21.40
2022-09-03T20:37:24.950Z,21.50
2022-09-03T20:40:28.688Z,21.50
2022-09-03T20:43:39.219Z,21.40
2022-09-03T20:46:40.336Z,21.40
2022-09-03T20:49:24.357Z,21.30
2022-09-03T20:52:07.342Z,21.10
2022-09-03T20:54:44.750Z,21.00
2022-09-03T20:57:23.885Z,21.00
2022-09-03T21:00:13.928Z,21.00
2022-09-03T21:03:09.513Z,21.00
2022-09-03T21:06:20.228Z,20.80
2022-09-03T21:09:30.161Z,20.70
2022-09-03T21:12:06.752Z,20.80
2022-09-03T21:14:48.687Z,20.80
2022-09-03T21:17:28.021Z,20.80
2022-09-03T21:20:13.678Z,20.70
2022-09-03T21:23:14.942Z,20.50
2022-09-03T21:26:08.559Z,20.40
2022-09-03T21:28:42.481Z,20.40
2022-09-03T21:31:25.188Z,20.50
2022-09-03T21:34:19.176Z,20.60
2022-09-03T21:36:49.363Z,20.60
2022-09-03T21:39:27.430Z,20.60
2022-09-03T21:42:17.806Z,20.60
2022-09-03T21:45:07.667Z,20.70
2022-09-03T21:47:45.177Z,20.60
2022-09-03T21:50:22.911Z,20.70
2022-09-03T21:53:43.246Z,20.70
2022-09-03T21:56:32.921Z,20.70
2022-09-03T21:59:25.294Z,20.80
2022-09-03T22:02:11.351Z,20.80
2022-09-03T22:04:39.018Z,20.70
2022-09-03T22:07:36.987Z,20.60
2022-09-03T22:10:20.564Z,20.50
2022-09-03T22:13:15.817Z,20.60
2022-09-03T22:15:51.314Z,20.70
2022-09-03T22:18:28.491Z,20.70
2022-09-03T22:21:13.608Z,20.70
2022-09-03T22:24:23.341Z,20.70
2022-09-03T22:27:37.870Z,20.70
2022-09-03T22:30:20.220Z,20.80
2022-09-03T22:33:01.223Z,20.80
2022-09-03T22:35:46.790Z,20.80
2022-09-03T22:38:48.399Z,20.80
2022-09-03T22:41:44.440Z,20.70
2022-09-03T22:44:30.282Z,20.70
2022-09-03T22:47:19.275Z,20.60
2022-09-03T22:50:20.374Z,20.60
2022-09-03T22:53:37.846Z,20.40
2022-09-03T22:56:12.564Z,20.40
2022-09-03T22:59:00.816Z,20.40
2022-09-03T23:01:37.075Z,20.40
2022-09-03T23:04:31.767Z,20.40
2022-09-03T23:07:19.002Z,20.40
2022-09-03T23:09:56.146Z,20.40
2022-09-03T23:12:39.873Z,20.30
2022-09-03T23:15:11.719Z,20.30
2022-09-03T23:17:47.289Z,20.20
2022-09-03T23:20:23.086Z,20.20
2022-09-03T23:23:18.372Z,20.10
2022-09-03T23:25:53.825Z,20.10
2022-09-03T23:28:36.665Z,20.10
2022-09-03T23:31:23.336Z,20.10
2022-09-03T23:33:53.871Z,20.10
2022-09-03T23:37:01.368Z,20.00
2022-09-03T23:40:08.384Z,20.00
2022-09-03T23:43:00.378Z,20.00
2022-09-03T23:45:54.112Z,19.80
2022-09-03T23:49:08.911Z,19.60
2022-09-03T23:52:20.811Z,19.50
2022-09-03T23:55:19.285Z,19.60
2022-09-03T23:58:09.673Z,19.60
